Aviation Digital Data Service (ADDS)

Output produced by METARs form (1407 UTC 24 August 2019)
found at http://www.aviationweather.gov/metar/data/
 
METAR text: EHVK 241355Z AUTO 07006KT 050V170 9999 NCD 30/09 Q1019 BLU
Conditions at: EHVK (VOLKEL RNLAFB , NL) observed 1355 UTC 24 August 2019
Temperature: 30.0°C (86°F)
Dewpoint: 9.0°C (48°F) [RH = 27%]
Pressure (altimeter): 30.09 inches Hg (1019.0 mb)
Winds: from the ENE (70 degrees) at 7 MPH (6 knots; 3.1 m/s)
Visibility: 6 or more miles (10+ km)
Ceiling: at least 12,000 feet AGL
Clouds: sky clear below 12,000 feet AGL
Weather: no significant weather observed at this time

METAR text: EHVK 241325Z AUTO 06007KT 060V170 9999 NCD 29/08 Q1019 BLU
Conditions at: EHVK (VOLKEL RNLAFB , NL) observed 1325 UTC 24 August 2019
Temperature: 29.0°C (84°F)
Dewpoint: 8.0°C (46°F) [RH = 27%]
Pressure (altimeter): 30.09 inches Hg (1019.0 mb)
Winds: from the ENE (60 degrees) at 8 MPH (7 knots; 3.6 m/s)
Visibility: 6 or more miles (10+ km)
Ceiling: at least 12,000 feet AGL
Clouds: sky clear below 12,000 feet AGL
Weather: no significant weather observed at this time

METAR text: EHVK 241255Z AUTO 07005KT 030V150 9999 NCD 30/10 Q1020 BLU
Conditions at: EHVK (VOLKEL RNLAFB , NL) observed 1255 UTC 24 August 2019
Temperature: 30.0°C (86°F)
Dewpoint: 10.0°C (50°F) [RH = 29%]
Pressure (altimeter): 30.12 inches Hg (1020.0 mb)
Winds: from the ENE (70 degrees) at 6 MPH (5 knots; 2.6 m/s)
Visibility: 6 or more miles (10+ km)
Ceiling: at least 12,000 feet AGL
Clouds: sky clear below 12,000 feet AGL
Weather: no significant weather observed at this time

METAR text: EHVK 241225Z AUTO VRB04KT 9999 NCD 29/11 Q1020 BLU
Conditions at: EHVK (VOLKEL RNLAFB , NL) observed 1225 UTC 24 August 2019
Temperature: 29.0°C (84°F)
Dewpoint: 11.0°C (52°F) [RH = 33%]
Pressure (altimeter): 30.12 inches Hg (1020.0 mb)
Winds: variable direction winds at 5 MPH (4 knots; 2.1 m/s)
Visibility: 6 or more miles (10+ km)
Ceiling: at least 12,000 feet AGL
Clouds: sky clear below 12,000 feet AGL
Weather: no significant weather observed at this time

METAR text: EHVK 241155Z AUTO 11006KT 060V190 9999 NCD 28/11 Q1020 BLU
Conditions at: EHVK (VOLKEL RNLAFB , NL) observed 1155 UTC 24 August 2019
Temperature: 28.0°C (82°F)
Dewpoint: 11.0°C (52°F) [RH = 35%]
Pressure (altimeter): 30.12 inches Hg (1020.0 mb)
Winds: from the ESE (110 degrees) at 7 MPH (6 knots; 3.1 m/s)
Visibility: 6 or more miles (10+ km)
Ceiling: at least 12,000 feet AGL
Clouds: sky clear below 12,000 feet AGL
Weather: no significant weather observed at this time

METAR text: EHVK 241125Z AUTO 09006KT 060V140 9999 NCD 28/11 Q1020 BLU
Conditions at: EHVK (VOLKEL RNLAFB , NL) observed 1125 UTC 24 August 2019
Temperature: 28.0°C (82°F)
Dewpoint: 11.0°C (52°F) [RH = 35%]
Pressure (altimeter): 30.12 inches Hg (1020.0 mb)
Winds: from the E (90 degrees) at 7 MPH (6 knots; 3.1 m/s)
Visibility: 6 or more miles (10+ km)
Ceiling: at least 12,000 feet AGL
Clouds: sky clear below 12,000 feet AGL
Weather: no significant weather observed at this time

METAR text: EHVK 241055Z AUTO 10006KT 080V150 9999 NCD 28/11 Q1020 BLU
Conditions at: EHVK (VOLKEL RNLAFB , NL) observed 1055 UTC 24 August 2019
Temperature: 28.0°C (82°F)
Dewpoint: 11.0°C (52°F) [RH = 35%]
Pressure (altimeter): 30.12 inches Hg (1020.0 mb)
Winds: from the E (100 degrees) at 7 MPH (6 knots; 3.1 m/s)
Visibility: 6 or more miles (10+ km)
Ceiling: at least 12,000 feet AGL
Clouds: sky clear below 12,000 feet AGL
Weather: no significant weather observed at this time

METAR text: EHVK 241025Z AUTO 11005KT 050V170 9999 NCD 27/13 Q1021 BLU
Conditions at: EHVK (VOLKEL RNLAFB , NL) observed 1025 UTC 24 August 2019
Temperature: 27.0°C (81°F)
Dewpoint: 13.0°C (55°F) [RH = 42%]
Pressure (altimeter): 30.15 inches Hg (1021.0 mb)
Winds: from the ESE (110 degrees) at 6 MPH (5 knots; 2.6 m/s)
Visibility: 6 or more miles (10+ km)
Ceiling: at least 12,000 feet AGL
Clouds: sky clear below 12,000 feet AGL
Weather: no significant weather observed at this time

METAR text: EHVK 240955Z AUTO 11004KT 080V160 9999 NCD 25/13 Q1021 BLU
Conditions at: EHVK (VOLKEL RNLAFB , NL) observed 0955 UTC 24 August 2019
Temperature: 25.0°C (77°F)
Dewpoint: 13.0°C (55°F) [RH = 47%]
Pressure (altimeter): 30.15 inches Hg (1021.0 mb)
Winds: from the ESE (110 degrees) at 5 MPH (4 knots; 2.1 m/s)
Visibility: 6 or more miles (10+ km)
Ceiling: at least 12,000 feet AGL
Clouds: sky clear below 12,000 feet AGL
Weather: no significant weather observed at this time

METAR text: EHVK 240925Z AUTO 09004KT 050V150 9999 NCD 25/13 Q1021 BLU
Conditions at: EHVK (VOLKEL RNLAFB , NL) observed 0925 UTC 24 August 2019
Temperature: 25.0°C (77°F)
Dewpoint: 13.0°C (55°F) [RH = 47%]
Pressure (altimeter): 30.15 inches Hg (1021.0 mb)
Winds: from the E (90 degrees) at 5 MPH (4 knots; 2.1 m/s)
Visibility: 6 or more miles (10+ km)
Ceiling: at least 12,000 feet AGL
Clouds: sky clear below 12,000 feet AGL
Weather: no significant weather observed at this time

METAR text: EHVK 240855Z AUTO 11005KT 050V180 9999 NCD 23/13 Q1021 BLU
Conditions at: EHVK (VOLKEL RNLAFB , NL) observed 0855 UTC 24 August 2019
Temperature: 23.0°C (73°F)
Dewpoint: 13.0°C (55°F) [RH = 53%]
Pressure (altimeter): 30.15 inches Hg (1021.0 mb)
Winds: from the ESE (110 degrees) at 6 MPH (5 knots; 2.6 m/s)
Visibility: 6 or more miles (10+ km)
Ceiling: at least 12,000 feet AGL
Clouds: sky clear below 12,000 feet AGL
Weather: no significant weather observed at this time

METAR text: EHVK 240825Z AUTO 10004KT 060V190 9999 NCD 22/13 Q1021 BLU
Conditions at: EHVK (VOLKEL RNLAFB , NL) observed 0825 UTC 24 August 2019
Temperature: 22.0°C (72°F)
Dewpoint: 13.0°C (55°F) [RH = 57%]
Pressure (altimeter): 30.15 inches Hg (1021.0 mb)
Winds: from the E (100 degrees) at 5 MPH (4 knots; 2.1 m/s)
Visibility: 6 or more miles (10+ km)
Ceiling: at least 12,000 feet AGL
Clouds: sky clear below 12,000 feet AGL
Weather: no significant weather observed at this time

METAR text: EHVK 240755Z AUTO 09004KT 060V150 9999 NCD 21/14 Q1021 BLU
Conditions at: EHVK (VOLKEL RNLAFB , NL) observed 0755 UTC 24 August 2019
Temperature: 21.0°C (70°F)
Dewpoint: 14.0°C (57°F) [RH = 64%]
Pressure (altimeter): 30.15 inches Hg (1021.0 mb)
Winds: from the E (90 degrees) at 5 MPH (4 knots; 2.1 m/s)
Visibility: 6 or more miles (10+ km)
Ceiling: at least 12,000 feet AGL
Clouds: sky clear below 12,000 feet AGL
Weather: no significant weather observed at this time

METAR text: EHVK 240725Z AUTO 09004KT 080V150 9999 NCD 19/13 Q1021 BLU
Conditions at: EHVK (VOLKEL RNLAFB , NL) observed 0725 UTC 24 August 2019
Temperature: 19.0°C (66°F)
Dewpoint: 13.0°C (55°F) [RH = 68%]
Pressure (altimeter): 30.15 inches Hg (1021.0 mb)
Winds: from the E (90 degrees) at 5 MPH (4 knots; 2.1 m/s)
Visibility: 6 or more miles (10+ km)
Ceiling: at least 12,000 feet AGL
Clouds: sky clear below 12,000 feet AGL
Weather: no significant weather observed at this time

METAR text: EHVK 240655Z AUTO 09004KT 080V140 9999 NCD 18/12 Q1021 BLU
Conditions at: EHVK (VOLKEL RNLAFB , NL) observed 0655 UTC 24 August 2019
Temperature: 18.0°C (64°F)
Dewpoint: 12.0°C (54°F) [RH = 68%]
Pressure (altimeter): 30.15 inches Hg (1021.0 mb)
Winds: from the E (90 degrees) at 5 MPH (4 knots; 2.1 m/s)
Visibility: 6 or more miles (10+ km)
Ceiling: at least 12,000 feet AGL
Clouds: sky clear below 12,000 feet AGL
Weather: no significant weather observed at this time

METAR text: EHVK 240625Z AUTO 08003KT 060V120 9999 NCD 17/13 Q1021 BLU
Conditions at: EHVK (VOLKEL RNLAFB , NL) observed 0625 UTC 24 August 2019
Temperature: 17.0°C (63°F)
Dewpoint: 13.0°C (55°F) [RH = 77%]
Pressure (altimeter): 30.15 inches Hg (1021.0 mb)
Winds: from the E (80 degrees) at 3 MPH (3 knots; 1.5 m/s)
Visibility: 6 or more miles (10+ km)
Ceiling: at least 12,000 feet AGL
Clouds: sky clear below 12,000 feet AGL
Weather: no significant weather observed at this time

METAR text: EHVK 240555Z AUTO 07003KT 9999 NCD 15/12 Q1021 BLU
Conditions at: EHVK (VOLKEL RNLAFB , NL) observed 0555 UTC 24 August 2019
Temperature: 15.0°C (59°F)
Dewpoint: 12.0°C (54°F) [RH = 82%]
Pressure (altimeter): 30.15 inches Hg (1021.0 mb)
Winds: from the ENE (70 degrees) at 3 MPH (3 knots; 1.5 m/s)
Visibility: 6 or more miles (10+ km)
Ceiling: at least 12,000 feet AGL
Clouds: sky clear below 12,000 feet AGL
Weather: no significant weather observed at this time

METAR text: EHVK 240525Z AUTO 07003KT 9999 NCD 14/11 Q1021 BLU
Conditions at: EHVK (VOLKEL RNLAFB , NL) observed 0525 UTC 24 August 2019
Temperature: 14.0°C (57°F)
Dewpoint: 11.0°C (52°F) [RH = 82%]
Pressure (altimeter): 30.15 inches Hg (1021.0 mb)
Winds: from the ENE (70 degrees) at 3 MPH (3 knots; 1.5 m/s)
Visibility: 6 or more miles (10+ km)
Ceiling: at least 12,000 feet AGL
Clouds: sky clear below 12,000 feet AGL
Weather: no significant weather observed at this time

METAR text: EHVK 240455Z AUTO 07003KT 9999 NCD 14/11 Q1021 BLU
Conditions at: EHVK (VOLKEL RNLAFB , NL) observed 0455 UTC 24 August 2019
Temperature: 14.0°C (57°F)
Dewpoint: 11.0°C (52°F) [RH = 82%]
Pressure (altimeter): 30.15 inches Hg (1021.0 mb)
Winds: from the ENE (70 degrees) at 3 MPH (3 knots; 1.5 m/s)
Visibility: 6 or more miles (10+ km)
Ceiling: at least 12,000 feet AGL
Clouds: sky clear below 12,000 feet AGL
Weather: no significant weather observed at this time

METAR text: EHVK 240425Z AUTO 07004KT 9999 NCD 14/11 Q1021 BLU
Conditions at: EHVK (VOLKEL RNLAFB , NL) observed 0425 UTC 24 August 2019
Temperature: 14.0°C (57°F)
Dewpoint: 11.0°C (52°F) [RH = 82%]
Pressure (altimeter): 30.15 inches Hg (1021.0 mb)
Winds: from the ENE (70 degrees) at 5 MPH (4 knots; 2.1 m/s)
Visibility: 6 or more miles (10+ km)
Ceiling: at least 12,000 feet AGL
Clouds: sky clear below 12,000 feet AGL
Weather: no significant weather observed at this time

METAR text: EHVK 240355Z AUTO 06004KT 9999 NCD 14/11 Q1021 BLU
Conditions at: EHVK (VOLKEL RNLAFB , NL) observed 0355 UTC 24 August 2019
Temperature: 14.0°C (57°F)
Dewpoint: 11.0°C (52°F) [RH = 82%]
Pressure (altimeter): 30.15 inches Hg (1021.0 mb)
Winds: from the ENE (60 degrees) at 5 MPH (4 knots; 2.1 m/s)
Visibility: 6 or more miles (10+ km)
Ceiling: at least 12,000 feet AGL
Clouds: sky clear below 12,000 feet AGL
Weather: no significant weather observed at this time

METAR text: EHVK 240325Z AUTO 06005KT 9999 NCD 14/10 Q1021 BLU
Conditions at: EHVK (VOLKEL RNLAFB , NL) observed 0325 UTC 24 August 2019
Temperature: 14.0°C (57°F)
Dewpoint: 10.0°C (50°F) [RH = 77%]
Pressure (altimeter): 30.15 inches Hg (1021.0 mb)
Winds: from the ENE (60 degrees) at 6 MPH (5 knots; 2.6 m/s)
Visibility: 6 or more miles (10+ km)
Ceiling: at least 12,000 feet AGL
Clouds: sky clear below 12,000 feet AGL
Weather: no significant weather observed at this time

METAR text: EHVK 240255Z AUTO 06005KT 9999 NCD 15/11 Q1021 BLU
Conditions at: EHVK (VOLKEL RNLAFB , NL) observed 0255 UTC 24 August 2019
Temperature: 15.0°C (59°F)
Dewpoint: 11.0°C (52°F) [RH = 77%]
Pressure (altimeter): 30.15 inches Hg (1021.0 mb)
Winds: from the ENE (60 degrees) at 6 MPH (5 knots; 2.6 m/s)
Visibility: 6 or more miles (10+ km)
Ceiling: at least 12,000 feet AGL
Clouds: sky clear below 12,000 feet AGL
Weather: no significant weather observed at this time

METAR text: EHVK 240225Z AUTO 06005KT 9999 NCD 14/10 Q1022 BLU
Conditions at: EHVK (VOLKEL RNLAFB , NL) observed 0225 UTC 24 August 2019
Temperature: 14.0°C (57°F)
Dewpoint: 10.0°C (50°F) [RH = 77%]
Pressure (altimeter): 30.18 inches Hg (1022.0 mb)
Winds: from the ENE (60 degrees) at 6 MPH (5 knots; 2.6 m/s)
Visibility: 6 or more miles (10+ km)
Ceiling: at least 12,000 feet AGL
Clouds: sky clear below 12,000 feet AGL
Weather: no significant weather observed at this time

METAR text: EHVK 240155Z AUTO 06005KT 9999 NCD 15/10 Q1022 BLU
Conditions at: EHVK (VOLKEL RNLAFB , NL) observed 0155 UTC 24 August 2019
Temperature: 15.0°C (59°F)
Dewpoint: 10.0°C (50°F) [RH = 72%]
Pressure (altimeter): 30.18 inches Hg (1022.0 mb)
Winds: from the ENE (60 degrees) at 6 MPH (5 knots; 2.6 m/s)
Visibility: 6 or more miles (10+ km)
Ceiling: at least 12,000 feet AGL
Clouds: sky clear below 12,000 feet AGL
Weather: no significant weather observed at this time

METAR text: EHVK 240125Z AUTO 07005KT 9999 NCD 16/11 Q1022 BLU
Conditions at: EHVK (VOLKEL RNLAFB , NL) observed 0125 UTC 24 August 2019
Temperature: 16.0°C (61°F)
Dewpoint: 11.0°C (52°F) [RH = 72%]
Pressure (altimeter): 30.18 inches Hg (1022.0 mb)
Winds: from the ENE (70 degrees) at 6 MPH (5 knots; 2.6 m/s)
Visibility: 6 or more miles (10+ km)
Ceiling: at least 12,000 feet AGL
Clouds: sky clear below 12,000 feet AGL
Weather: no significant weather observed at this time

METAR text: EHVK 240055Z AUTO 06005KT 9999 NCD 16/11 Q1022 BLU
Conditions at: EHVK (VOLKEL RNLAFB , NL) observed 0055 UTC 24 August 2019
Temperature: 16.0°C (61°F)
Dewpoint: 11.0°C (52°F) [RH = 72%]
Pressure (altimeter): 30.18 inches Hg (1022.0 mb)
Winds: from the ENE (60 degrees) at 6 MPH (5 knots; 2.6 m/s)
Visibility: 6 or more miles (10+ km)
Ceiling: at least 12,000 feet AGL
Clouds: sky clear below 12,000 feet AGL
Weather: no significant weather observed at this time

METAR text: EHVK 240025Z AUTO 06005KT 9999 NCD 16/11 Q1022 BLU
Conditions at: EHVK (VOLKEL RNLAFB , NL) observed 0025 UTC 24 August 2019
Temperature: 16.0°C (61°F)
Dewpoint: 11.0°C (52°F) [RH = 72%]
Pressure (altimeter): 30.18 inches Hg (1022.0 mb)
Winds: from the ENE (60 degrees) at 6 MPH (5 knots; 2.6 m/s)
Visibility: 6 or more miles (10+ km)
Ceiling: at least 12,000 feet AGL
Clouds: sky clear below 12,000 feet AGL
Weather: no significant weather observed at this time

METAR text: EHVK 232355Z AUTO 06005KT 9999 NCD 16/11 Q1022 BLU
Conditions at: EHVK (VOLKEL RNLAFB , NL) observed 2355 UTC 23 August 2019
Temperature: 16.0°C (61°F)
Dewpoint: 11.0°C (52°F) [RH = 72%]
Pressure (altimeter): 30.18 inches Hg (1022.0 mb)
Winds: from the ENE (60 degrees) at 6 MPH (5 knots; 2.6 m/s)
Visibility: 6 or more miles (10+ km)
Ceiling: at least 12,000 feet AGL
Clouds: sky clear below 12,000 feet AGL
Weather: no significant weather observed at this time

METAR text: EHVK 232325Z AUTO 05004KT 9999 NCD 17/11 Q1022 BLU
Conditions at: EHVK (VOLKEL RNLAFB , NL) observed 2325 UTC 23 August 2019
Temperature: 17.0°C (63°F)
Dewpoint: 11.0°C (52°F) [RH = 68%]
Pressure (altimeter): 30.18 inches Hg (1022.0 mb)
Winds: from the NE (50 degrees) at 5 MPH (4 knots; 2.1 m/s)
Visibility: 6 or more miles (10+ km)
Ceiling: at least 12,000 feet AGL
Clouds: sky clear below 12,000 feet AGL
Weather: no significant weather observed at this time

METAR text: EHVK 232255Z AUTO 05003KT 030V100 9999 BKN320 17/12 Q1023 BLU
Conditions at: EHVK (VOLKEL RNLAFB , NL) observed 2255 UTC 23 August 2019
Temperature: 17.0°C (63°F)
Dewpoint: 12.0°C (54°F) [RH = 72%]
Pressure (altimeter): 30.21 inches Hg (1023.0 mb)
Winds: from the NE (50 degrees) at 3 MPH (3 knots; 1.5 m/s)
Visibility: 6 or more miles (10+ km)
Ceiling: 32000 feet AGL
Clouds: broken clouds at 32000 feet AGL
Weather: no significant weather observed at this time

METAR text: EHVK 232225Z AUTO 05003KT 9999 FEW340 16/12 Q1023 BLU
Conditions at: EHVK (VOLKEL RNLAFB , NL) observed 2225 UTC 23 August 2019
Temperature: 16.0°C (61°F)
Dewpoint: 12.0°C (54°F) [RH = 77%]
Pressure (altimeter): 30.21 inches Hg (1023.0 mb)
Winds: from the NE (50 degrees) at 3 MPH (3 knots; 1.5 m/s)
Visibility: 6 or more miles (10+ km)
Ceiling: at least 12,000 feet AGL
Clouds: few clouds at 34000 feet AGL
Weather: no significant weather observed at this time

METAR text: EHVK 232155Z AUTO 03003KT 9999 NCD 17/12 Q1023 BLU
Conditions at: EHVK (VOLKEL RNLAFB , NL) observed 2155 UTC 23 August 2019
Temperature: 17.0°C (63°F)
Dewpoint: 12.0°C (54°F) [RH = 72%]
Pressure (altimeter): 30.21 inches Hg (1023.0 mb)
Winds: from the NNE (30 degrees) at 3 MPH (3 knots; 1.5 m/s)
Visibility: 6 or more miles (10+ km)
Ceiling: at least 12,000 feet AGL
Clouds: sky clear below 12,000 feet AGL
Weather: no significant weather observed at this time

METAR text: EHVK 232125Z AUTO 02003KT 9999 NCD 17/12 Q1023 BLU
Conditions at: EHVK (VOLKEL RNLAFB , NL) observed 2125 UTC 23 August 2019
Temperature: 17.0°C (63°F)
Dewpoint: 12.0°C (54°F) [RH = 72%]
Pressure (altimeter): 30.21 inches Hg (1023.0 mb)
Winds: from the NNE (20 degrees) at 3 MPH (3 knots; 1.5 m/s)
Visibility: 6 or more miles (10+ km)
Ceiling: at least 12,000 feet AGL
Clouds: sky clear below 12,000 feet AGL
Weather: no significant weather observed at this time

METAR text: EHVK 232055Z AUTO 02003KT 9999 OVC280 17/12 Q1023 BLU
Conditions at: EHVK (VOLKEL RNLAFB , NL) observed 2055 UTC 23 August 2019
Temperature: 17.0°C (63°F)
Dewpoint: 12.0°C (54°F) [RH = 72%]
Pressure (altimeter): 30.21 inches Hg (1023.0 mb)
Winds: from the NNE (20 degrees) at 3 MPH (3 knots; 1.5 m/s)
Visibility: 6 or more miles (10+ km)
Ceiling: 28000 feet AGL
Clouds: overcast cloud deck at 28000 feet AGL
Weather: no significant weather observed at this time

METAR text: EHVK 232025Z AUTO 03003KT 9999 OVC290 19/13 Q1023 BLU
Conditions at: EHVK (VOLKEL RNLAFB , NL) observed 2025 UTC 23 August 2019
Temperature: 19.0°C (66°F)
Dewpoint: 13.0°C (55°F) [RH = 68%]
Pressure (altimeter): 30.21 inches Hg (1023.0 mb)
Winds: from the NNE (30 degrees) at 3 MPH (3 knots; 1.5 m/s)
Visibility: 6 or more miles (10+ km)
Ceiling: 29000 feet AGL
Clouds: overcast cloud deck at 29000 feet AGL
Weather: no significant weather observed at this time

METAR text: EHVK 232010Z AUTO 03003KT 9999 OVC300 19/13 Q1023 BLU
Conditions at: EHVK (VOLKEL RNLAFB , NL) observed 2010 UTC 23 August 2019
Temperature: 19.0°C (66°F)
Dewpoint: 13.0°C (55°F) [RH = 68%]
Pressure (altimeter): 30.21 inches Hg (1023.0 mb)
Winds: from the NNE (30 degrees) at 3 MPH (3 knots; 1.5 m/s)
Visibility: 6 or more miles (10+ km)
Ceiling: 30000 feet AGL
Clouds: overcast cloud deck at 30000 feet AGL
Weather: no significant weather observed at this time

METAR text: EHVK 231955Z AUTO 03004KT 9999 OVC290 19/13 Q1023 BLU
Conditions at: EHVK (VOLKEL RNLAFB , NL) observed 1955 UTC 23 August 2019
Temperature: 19.0°C (66°F)
Dewpoint: 13.0°C (55°F) [RH = 68%]
Pressure (altimeter): 30.21 inches Hg (1023.0 mb)
Winds: from the NNE (30 degrees) at 5 MPH (4 knots; 2.1 m/s)
Visibility: 6 or more miles (10+ km)
Ceiling: 29000 feet AGL
Clouds: overcast cloud deck at 29000 feet AGL
Weather: no significant weather observed at this time

METAR text: EHVK 231925Z AUTO 03004KT 9999 OVC290 20/13 Q1023 BLU
Conditions at: EHVK (VOLKEL RNLAFB , NL) observed 1925 UTC 23 August 2019
Temperature: 20.0°C (68°F)
Dewpoint: 13.0°C (55°F) [RH = 64%]
Pressure (altimeter): 30.21 inches Hg (1023.0 mb)
Winds: from the NNE (30 degrees) at 5 MPH (4 knots; 2.1 m/s)
Visibility: 6 or more miles (10+ km)
Ceiling: 29000 feet AGL
Clouds: overcast cloud deck at 29000 feet AGL
Weather: no significant weather observed at this time

METAR text: EHVK 231855Z AUTO 04005KT 9999 OVC300 21/13 Q1023 BLU
Conditions at: EHVK (VOLKEL RNLAFB , NL) observed 1855 UTC 23 August 2019
Temperature: 21.0°C (70°F)
Dewpoint: 13.0°C (55°F) [RH = 60%]
Pressure (altimeter): 30.21 inches Hg (1023.0 mb)
Winds: from the NE (40 degrees) at 6 MPH (5 knots; 2.6 m/s)
Visibility: 6 or more miles (10+ km)
Ceiling: 30000 feet AGL
Clouds: overcast cloud deck at 30000 feet AGL
Weather: no significant weather observed at this time

METAR text: EHVK 231825Z AUTO 04005KT 9999 OVC290 22/13 Q1023 BLU
Conditions at: EHVK (VOLKEL RNLAFB , NL) observed 1825 UTC 23 August 2019
Temperature: 22.0°C (72°F)
Dewpoint: 13.0°C (55°F) [RH = 57%]
Pressure (altimeter): 30.21 inches Hg (1023.0 mb)
Winds: from the NE (40 degrees) at 6 MPH (5 knots; 2.6 m/s)
Visibility: 6 or more miles (10+ km)
Ceiling: 29000 feet AGL
Clouds: overcast cloud deck at 29000 feet AGL
Weather: no significant weather observed at this time

METAR text: EHVK 231806Z AUTO 04005KT 9999 OVC300 23/13 Q1023 BLU
Conditions at: EHVK (VOLKEL RNLAFB , NL) observed 1806 UTC 23 August 2019
Temperature: 23.0°C (73°F)
Dewpoint: 13.0°C (55°F) [RH = 53%]
Pressure (altimeter): 30.21 inches Hg (1023.0 mb)
Winds: from the NE (40 degrees) at 6 MPH (5 knots; 2.6 m/s)
Visibility: 6 or more miles (10+ km)
Ceiling: 30000 feet AGL
Clouds: overcast cloud deck at 30000 feet AGL
Weather: no significant weather observed at this time

METAR text: EHVK 231755Z AUTO 03004KT 9999 OVC310 23/13 Q1023 BLU
Conditions at: EHVK (VOLKEL RNLAFB , NL) observed 1755 UTC 23 August 2019
Temperature: 23.0°C (73°F)
Dewpoint: 13.0°C (55°F) [RH = 53%]
Pressure (altimeter): 30.21 inches Hg (1023.0 mb)
Winds: from the NNE (30 degrees) at 5 MPH (4 knots; 2.1 m/s)
Visibility: 6 or more miles (10+ km)
Ceiling: 31000 feet AGL
Clouds: overcast cloud deck at 31000 feet AGL
Weather: no significant weather observed at this time

METAR text: EHVK 231725Z AUTO 03005KT 9999 BKN340 24/13 Q1023 BLU
Conditions at: EHVK (VOLKEL RNLAFB , NL) observed 1725 UTC 23 August 2019
Temperature: 24.0°C (75°F)
Dewpoint: 13.0°C (55°F) [RH = 50%]
Pressure (altimeter): 30.21 inches Hg (1023.0 mb)
Winds: from the NNE (30 degrees) at 6 MPH (5 knots; 2.6 m/s)
Visibility: 6 or more miles (10+ km)
Ceiling: 34000 feet AGL
Clouds: broken clouds at 34000 feet AGL
Weather: no significant weather observed at this time

METAR text: EHVK 231655Z AUTO 04004KT 9999 BKN350 26/13 Q1023 BLU
Conditions at: EHVK (VOLKEL RNLAFB , NL) observed 1655 UTC 23 August 2019
Temperature: 26.0°C (79°F)
Dewpoint: 13.0°C (55°F) [RH = 45%]
Pressure (altimeter): 30.21 inches Hg (1023.0 mb)
Winds: from the NE (40 degrees) at 5 MPH (4 knots; 2.1 m/s)
Visibility: 6 or more miles (10+ km)
Ceiling: 35000 feet AGL
Clouds: broken clouds at 35000 feet AGL
Weather: no significant weather observed at this time

METAR text: EHVK 231642Z AUTO 03005KT 010V070 9999 OVC350 26/12 Q1023 BLU
Conditions at: EHVK (VOLKEL RNLAFB , NL) observed 1642 UTC 23 August 2019
Temperature: 26.0°C (79°F)
Dewpoint: 12.0°C (54°F) [RH = 42%]
Pressure (altimeter): 30.21 inches Hg (1023.0 mb)
Winds: from the NNE (30 degrees) at 6 MPH (5 knots; 2.6 m/s)
Visibility: 6 or more miles (10+ km)
Ceiling: 35000 feet AGL
Clouds: overcast cloud deck at 35000 feet AGL
Weather: no significant weather observed at this time

METAR text: EHVK 231625Z AUTO 06005KT 010V090 9999 OVC340 26/12 Q1023 BLU
Conditions at: EHVK (VOLKEL RNLAFB , NL) observed 1625 UTC 23 August 2019
Temperature: 26.0°C (79°F)
Dewpoint: 12.0°C (54°F) [RH = 42%]
Pressure (altimeter): 30.21 inches Hg (1023.0 mb)
Winds: from the ENE (60 degrees) at 6 MPH (5 knots; 2.6 m/s)
Visibility: 6 or more miles (10+ km)
Ceiling: 34000 feet AGL
Clouds: overcast cloud deck at 34000 feet AGL
Weather: no significant weather observed at this time

METAR text: EHVK 231555Z AUTO 04004KT 330V090 9999 NCD 26/12 Q1024 BLU
Conditions at: EHVK (VOLKEL RNLAFB , NL) observed 1555 UTC 23 August 2019
Temperature: 26.0°C (79°F)
Dewpoint: 12.0°C (54°F) [RH = 42%]
Pressure (altimeter): 30.24 inches Hg (1024.0 mb)
Winds: from the NE (40 degrees) at 5 MPH (4 knots; 2.1 m/s)
Visibility: 6 or more miles (10+ km)
Ceiling: at least 12,000 feet AGL
Clouds: sky clear below 12,000 feet AGL
Weather: no significant weather observed at this time

METAR text: EHVK 231525Z AUTO 04005KT 020V100 9999 OVC310 26/12 Q1024 BLU
Conditions at: EHVK (VOLKEL RNLAFB , NL) observed 1525 UTC 23 August 2019
Temperature: 26.0°C (79°F)
Dewpoint: 12.0°C (54°F) [RH = 42%]
Pressure (altimeter): 30.24 inches Hg (1024.0 mb)
Winds: from the NE (40 degrees) at 6 MPH (5 knots; 2.6 m/s)
Visibility: 6 or more miles (10+ km)
Ceiling: 31000 feet AGL
Clouds: overcast cloud deck at 31000 feet AGL
Weather: no significant weather observed at this time

METAR text: EHVK 231455Z AUTO VRB03KT 9999 NCD 26/12 Q1024 BLU
Conditions at: EHVK (VOLKEL RNLAFB , NL) observed 1455 UTC 23 August 2019
Temperature: 26.0°C (79°F)
Dewpoint: 12.0°C (54°F) [RH = 42%]
Pressure (altimeter): 30.24 inches Hg (1024.0 mb)
Winds: variable direction winds at 3 MPH (3 knots; 1.5 m/s)
Visibility: 6 or more miles (10+ km)
Ceiling: at least 12,000 feet AGL
Clouds: sky clear below 12,000 feet AGL
Weather: no significant weather observed at this time

METAR text: EHVK 231425Z AUTO VRB04KT 9999 NCD 26/12 Q1024 BLU
Conditions at: EHVK (VOLKEL RNLAFB , NL) observed 1425 UTC 23 August 2019
Temperature: 26.0°C (79°F)
Dewpoint: 12.0°C (54°F) [RH = 42%]
Pressure (altimeter): 30.24 inches Hg (1024.0 mb)
Winds: variable direction winds at 5 MPH (4 knots; 2.1 m/s)
Visibility: 6 or more miles (10+ km)
Ceiling: at least 12,000 feet AGL
Clouds: sky clear below 12,000 feet AGL
Weather: no significant weather observed at this time

METAR text: EHVK 231401Z AUTO VRB02KT 9999 OVC290 26/12 Q1024 BLU
Conditions at: EHVK (VOLKEL RNLAFB , NL) observed 1401 UTC 23 August 2019
Temperature: 26.0°C (79°F)
Dewpoint: 12.0°C (54°F) [RH = 42%]
Pressure (altimeter): 30.24 inches Hg (1024.0 mb)
Winds: variable direction winds at 2 MPH (2 knots; 1.0 m/s)
Visibility: 6 or more miles (10+ km)
Ceiling: 29000 feet AGL
Clouds: overcast cloud deck at 29000 feet AGL
Weather: no significant weather observed at this time

METAR text: EHVK 231355Z AUTO VRB04KT 9999 OVC290 26/12 Q1024 BLU VRB02KT CAVOK
Conditions at: EHVK (VOLKEL RNLAFB , NL) observed 1355 UTC 23 August 2019
Temperature: 26.0°C (79°F)
Dewpoint: 12.0°C (54°F) [RH = 42%]
Pressure (altimeter): 30.24 inches Hg (1024.0 mb)
Winds: variable direction winds at 5 MPH (4 knots; 2.1 m/s)
Visibility: 6 or more miles (10+ km)
Ceiling: 29000 feet AGL
Clouds: overcast cloud deck at 29000 feet AGL
Weather: no significant weather observed at this time

METAR text: EHVK 231325Z AUTO 06003KT 330V120 9999 OVC280 26/12 Q1025 BLU VRB02KT CAVOK
Conditions at: EHVK (VOLKEL RNLAFB , NL) observed 1325 UTC 23 August 2019
Temperature: 26.0°C (79°F)
Dewpoint: 12.0°C (54°F) [RH = 42%]
Pressure (altimeter): 30.27 inches Hg (1025.0 mb)
Winds: from the ENE (60 degrees) at 3 MPH (3 knots; 1.5 m/s)
Visibility: 6 or more miles (10+ km)
Ceiling: 28000 feet AGL
Clouds: overcast cloud deck at 28000 feet AGL
Weather: no significant weather observed at this time

METAR text: EHVK 231255Z AUTO VRB03KT 9999 OVC280 26/12 Q1025 BLU VRB02KT CAVOK
Conditions at: EHVK (VOLKEL RNLAFB , NL) observed 1255 UTC 23 August 2019
Temperature: 26.0°C (79°F)
Dewpoint: 12.0°C (54°F) [RH = 42%]
Pressure (altimeter): 30.27 inches Hg (1025.0 mb)
Winds: variable direction winds at 3 MPH (3 knots; 1.5 m/s)
Visibility: 6 or more miles (10+ km)
Ceiling: 28000 feet AGL
Clouds: overcast cloud deck at 28000 feet AGL
Weather: no significant weather observed at this time

METAR text: EHVK 231225Z AUTO VRB03KT 9999 OVC300 26/12 Q1025 BLU VRB02KT CAVOK
Conditions at: EHVK (VOLKEL RNLAFB , NL) observed 1225 UTC 23 August 2019
Temperature: 26.0°C (79°F)
Dewpoint: 12.0°C (54°F) [RH = 42%]
Pressure (altimeter): 30.27 inches Hg (1025.0 mb)
Winds: variable direction winds at 3 MPH (3 knots; 1.5 m/s)
Visibility: 6 or more miles (10+ km)
Ceiling: 30000 feet AGL
Clouds: overcast cloud deck at 30000 feet AGL
Weather: no significant weather observed at this time

METAR text: EHVK 231155Z AUTO 10004KT 300V090 9999 OVC300 25/12 Q1025 BLU VRB02KT CAVOK
Conditions at: EHVK (VOLKEL RNLAFB , NL) observed 1155 UTC 23 August 2019
Temperature: 25.0°C (77°F)
Dewpoint: 12.0°C (54°F) [RH = 44%]
Pressure (altimeter): 30.27 inches Hg (1025.0 mb)
Winds: from the E (100 degrees) at 5 MPH (4 knots; 2.1 m/s)
Visibility: 6 or more miles (10+ km)
Ceiling: 30000 feet AGL
Clouds: overcast cloud deck at 30000 feet AGL
Weather: no significant weather observed at this time

METAR text: EHVK 231125Z AUTO VRB04KT 9999 OVC310 24/11 Q1025 BLU VRB02KT CAVOK
Conditions at: EHVK (VOLKEL RNLAFB , NL) observed 1125 UTC 23 August 2019
Temperature: 24.0°C (75°F)
Dewpoint: 11.0°C (52°F) [RH = 44%]
Pressure (altimeter): 30.27 inches Hg (1025.0 mb)
Winds: variable direction winds at 5 MPH (4 knots; 2.1 m/s)
Visibility: 6 or more miles (10+ km)
Ceiling: 31000 feet AGL
Clouds: overcast cloud deck at 31000 feet AGL
Weather: no significant weather observed at this time

METAR text: EHVK 231055Z AUTO VRB04KT 9999 OVC320 24/10 Q1026 BLU VRB02KT CAVOK
Conditions at: EHVK (VOLKEL RNLAFB , NL) observed 1055 UTC 23 August 2019
Temperature: 24.0°C (75°F)
Dewpoint: 10.0°C (50°F) [RH = 41%]
Pressure (altimeter): 30.30 inches Hg (1026.0 mb)
Winds: variable direction winds at 5 MPH (4 knots; 2.1 m/s)
Visibility: 6 or more miles (10+ km)
Ceiling: 32000 feet AGL
Clouds: overcast cloud deck at 32000 feet AGL
Weather: no significant weather observed at this time

METAR text: EHVK 231025Z AUTO VRB02KT 9999 OVC340 24/12 Q1026 BLU VRB02KT CAVOK
Conditions at: EHVK (VOLKEL RNLAFB , NL) observed 1025 UTC 23 August 2019
Temperature: 24.0°C (75°F)
Dewpoint: 12.0°C (54°F) [RH = 47%]
Pressure (altimeter): 30.30 inches Hg (1026.0 mb)
Winds: variable direction winds at 2 MPH (2 knots; 1.0 m/s)
Visibility: 6 or more miles (10+ km)
Ceiling: 34000 feet AGL
Clouds: overcast cloud deck at 34000 feet AGL
Weather: no significant weather observed at this time

METAR text: EHVK 230955Z AUTO 12004KT 070V200 9999 BKN370 23/11 Q1026 BLU VRB02KT CAVOK
Conditions at: EHVK (VOLKEL RNLAFB , NL) observed 0955 UTC 23 August 2019
Temperature: 23.0°C (73°F)
Dewpoint: 11.0°C (52°F) [RH = 47%]
Pressure (altimeter): 30.30 inches Hg (1026.0 mb)
Winds: from the ESE (120 degrees) at 5 MPH (4 knots; 2.1 m/s)
Visibility: 6 or more miles (10+ km)
Ceiling: 37000 feet AGL
Clouds: broken clouds at 37000 feet AGL
Weather: no significant weather observed at this time

METAR text: EHVK 230925Z AUTO VRB04KT 9999 OVC350 22/12 Q1026 BLU VRB02KT CAVOK
Conditions at: EHVK (VOLKEL RNLAFB , NL) observed 0925 UTC 23 August 2019
Temperature: 22.0°C (72°F)
Dewpoint: 12.0°C (54°F) [RH = 53%]
Pressure (altimeter): 30.30 inches Hg (1026.0 mb)
Winds: variable direction winds at 5 MPH (4 knots; 2.1 m/s)
Visibility: 6 or more miles (10+ km)
Ceiling: 35000 feet AGL
Clouds: overcast cloud deck at 35000 feet AGL
Weather: no significant weather observed at this time

METAR text: EHVK 230855Z AUTO VRB03KT 9999 OVC340 22/12 Q1026 BLU VRB02KT CAVOK
Conditions at: EHVK (VOLKEL RNLAFB , NL) observed 0855 UTC 23 August 2019
Temperature: 22.0°C (72°F)
Dewpoint: 12.0°C (54°F) [RH = 53%]
Pressure (altimeter): 30.30 inches Hg (1026.0 mb)
Winds: variable direction winds at 3 MPH (3 knots; 1.5 m/s)
Visibility: 6 or more miles (10+ km)
Ceiling: 34000 feet AGL
Clouds: overcast cloud deck at 34000 feet AGL
Weather: no significant weather observed at this time

METAR text: EHVK 230825Z AUTO 03003KT 010V140 9999 BKN360 21/11 Q1026 BLU VRB02KT CAVOK
Conditions at: EHVK (VOLKEL RNLAFB , NL) observed 0825 UTC 23 August 2019
Temperature: 21.0°C (70°F)
Dewpoint: 11.0°C (52°F) [RH = 53%]
Pressure (altimeter): 30.30 inches Hg (1026.0 mb)
Winds: from the NNE (30 degrees) at 3 MPH (3 knots; 1.5 m/s)
Visibility: 6 or more miles (10+ km)
Ceiling: 36000 feet AGL
Clouds: broken clouds at 36000 feet AGL
Weather: no significant weather observed at this time

METAR text: EHVK 230755Z AUTO VRB02KT 9999 OVC350 21/10 Q1026 BLU VRB02KT CAVOK
Conditions at: EHVK (VOLKEL RNLAFB , NL) observed 0755 UTC 23 August 2019
Temperature: 21.0°C (70°F)
Dewpoint: 10.0°C (50°F) [RH = 49%]
Pressure (altimeter): 30.30 inches Hg (1026.0 mb)
Winds: variable direction winds at 2 MPH (2 knots; 1.0 m/s)
Visibility: 6 or more miles (10+ km)
Ceiling: 35000 feet AGL
Clouds: overcast cloud deck at 35000 feet AGL
Weather: no significant weather observed at this time

METAR text: EHVK 230738Z AUTO VRB02KT 9999 OVC350 20/11 Q1026 BLU VRB02KT CAVOK
Conditions at: EHVK (VOLKEL RNLAFB , NL) observed 0738 UTC 23 August 2019
Temperature: 20.0°C (68°F)
Dewpoint: 11.0°C (52°F) [RH = 56%]
Pressure (altimeter): 30.30 inches Hg (1026.0 mb)
Winds: variable direction winds at 2 MPH (2 knots; 1.0 m/s)
Visibility: 6 or more miles (10+ km)
Ceiling: 35000 feet AGL
Clouds: overcast cloud deck at 35000 feet AGL
Weather: no significant weather observed at this time

METAR text: EHVK 230725Z AUTO VRB01KT 9999 OVC360 20/09 Q1026 BLU VRB02KT CAVOK
Conditions at: EHVK (VOLKEL RNLAFB , NL) observed 0725 UTC 23 August 2019
Temperature: 20.0°C (68°F)
Dewpoint: 9.0°C (48°F) [RH = 49%]
Pressure (altimeter): 30.30 inches Hg (1026.0 mb)
Winds: variable direction winds at 1 MPH (1 knots; 0.5 m/s)
Visibility: 6 or more miles (10+ km)
Ceiling: 36000 feet AGL
Clouds: overcast cloud deck at 36000 feet AGL
Weather: no significant weather observed at this time

METAR text: EHVK 230655Z AUTO 34001KT 9999 OVC360 18/13 Q1026 BLU VRB02KT CAVOK
Conditions at: EHVK (VOLKEL RNLAFB , NL) observed 0655 UTC 23 August 2019
Temperature: 18.0°C (64°F)
Dewpoint: 13.0°C (55°F) [RH = 73%]
Pressure (altimeter): 30.30 inches Hg (1026.0 mb)
Winds: from the NNW (340 degrees) at 1 MPH (1 knots; 0.5 m/s)
Visibility: 6 or more miles (10+ km)
Ceiling: 36000 feet AGL
Clouds: overcast cloud deck at 36000 feet AGL
Weather: no significant weather observed at this time

METAR text: EHVK 230625Z AUTO 00000KT 9000 BR SCT350 15/13 Q1026 BLU VRB02KT CAVOK
Conditions at: EHVK (VOLKEL RNLAFB , NL) observed 0625 UTC 23 August 2019
Temperature: 15.0°C (59°F)
Dewpoint: 13.0°C (55°F) [RH = 88%]
Pressure (altimeter): 30.30 inches Hg (1026.0 mb)
Winds: calm
Visibility: 6 or more miles (10+ km)
Ceiling: at least 12,000 feet AGL
Clouds: scattered clouds at 35000 feet AGL
Weather: BR  (mist)

METAR text: EHVK 230619Z AUTO 00000KT 9000 BR FEW390 14/13 Q1026 BLU VRB02KT CAVOK
Conditions at: EHVK (VOLKEL RNLAFB , NL) observed 0619 UTC 23 August 2019
Temperature: 14.0°C (57°F)
Dewpoint: 13.0°C (55°F) [RH = 94%]
Pressure (altimeter): 30.30 inches Hg (1026.0 mb)
Winds: calm
Visibility: 6 or more miles (10+ km)
Ceiling: at least 12,000 feet AGL
Clouds: few clouds at 39000 feet AGL
Weather: BR  (mist)

METAR text: EHVK 230603Z AUTO 00000KT 8000 BR NCD 13/12 Q1026 BLU VRB02KT CAVOK
Conditions at: EHVK (VOLKEL RNLAFB , NL) observed 0603 UTC 23 August 2019
Temperature: 13.0°C (55°F)
Dewpoint: 12.0°C (54°F) [RH = 94%]
Pressure (altimeter): 30.30 inches Hg (1026.0 mb)
Winds: calm
Visibility: 6 or more miles (10+ km)
Ceiling: at least 12,000 feet AGL
Clouds: sky clear below 12,000 feet AGL
Weather: BR  (mist)

METAR text: EHVK 230559Z AUTO 00000KT 7000 BR NCD 12/12 Q1026 WHT VRB02KT CAVOK
Conditions at: EHVK (VOLKEL RNLAFB , NL) observed 0559 UTC 23 August 2019
Temperature: 12.0°C (54°F)
Dewpoint: 12.0°C (54°F) [RH = 100%]
Pressure (altimeter): 30.30 inches Hg (1026.0 mb)
Winds: calm
Visibility: 6 or more miles (10+ km)
Ceiling: at least 12,000 feet AGL
Clouds: sky clear below 12,000 feet AGL
Weather: BR  (mist)

METAR text: EHVK 230555Z AUTO 00000KT 8000 BR NCD 12/12 Q1026 BLU VRB02KT CAVOK
Conditions at: EHVK (VOLKEL RNLAFB , NL) observed 0555 UTC 23 August 2019
Temperature: 12.0°C (54°F)
Dewpoint: 12.0°C (54°F) [RH = 100%]
Pressure (altimeter): 30.30 inches Hg (1026.0 mb)
Winds: calm
Visibility: 6 or more miles (10+ km)
Ceiling: at least 12,000 feet AGL
Clouds: sky clear below 12,000 feet AGL
Weather: BR  (mist)

METAR text: EHVK 230544Z AUTO 00000KT 8000 BR NCD 12/11 Q1026 BLU VRB02KT CAVOK
Conditions at: EHVK (VOLKEL RNLAFB , NL) observed 0544 UTC 23 August 2019
Temperature: 12.0°C (54°F)
Dewpoint: 11.0°C (52°F) [RH = 94%]
Pressure (altimeter): 30.30 inches Hg (1026.0 mb)
Winds: calm
Visibility: 6 or more miles (10+ km)
Ceiling: at least 12,000 feet AGL
Clouds: sky clear below 12,000 feet AGL
Weather: BR  (mist)

METAR text: EHVK 230536Z AUTO 00000KT 7000 BR NCD 11/11 Q1026 WHT VRB02KT CAVOK
Conditions at: EHVK (VOLKEL RNLAFB , NL) observed 0536 UTC 23 August 2019
Temperature: 11.0°C (52°F)
Dewpoint: 11.0°C (52°F) [RH = 100%]
Pressure (altimeter): 30.30 inches Hg (1026.0 mb)
Winds: calm
Visibility: 6 or more miles (10+ km)
Ceiling: at least 12,000 feet AGL
Clouds: sky clear below 12,000 feet AGL
Weather: BR  (mist)

METAR text: EHVK 230525Z AUTO 00000KT 7000 BR NCD 11/10 Q1026 WHT VRB02KT CAVOK
Conditions at: EHVK (VOLKEL RNLAFB , NL) observed 0525 UTC 23 August 2019
Temperature: 11.0°C (52°F)
Dewpoint: 10.0°C (50°F) [RH = 94%]
Pressure (altimeter): 30.30 inches Hg (1026.0 mb)
Winds: calm
Visibility: 6 or more miles (10+ km)
Ceiling: at least 12,000 feet AGL
Clouds: sky clear below 12,000 feet AGL
Weather: BR  (mist)

METAR text: EHVK 230517Z AUTO 01001KT 7000 BR NCD 10/10 Q1026 WHT VRB02KT CAVOK
Conditions at: EHVK (VOLKEL RNLAFB , NL) observed 0517 UTC 23 August 2019
Temperature: 10.0°C (50°F)
Dewpoint: 10.0°C (50°F) [RH = 100%]
Pressure (altimeter): 30.30 inches Hg (1026.0 mb)
Winds: from the N (10 degrees) at 1 MPH (1 knots; 0.5 m/s)
Visibility: 6 or more miles (10+ km)
Ceiling: at least 12,000 feet AGL
Clouds: sky clear below 12,000 feet AGL
Weather: BR  (mist)

METAR text: EHVK 230516Z AUTO 00000KT 9999 FEW390 10/10 Q1026 BLU VRB02KT CAVOK
Conditions at: EHVK (VOLKEL RNLAFB , NL) observed 0516 UTC 23 August 2019
Temperature: 10.0°C (50°F)
Dewpoint: 10.0°C (50°F) [RH = 100%]
Pressure (altimeter): 30.30 inches Hg (1026.0 mb)
Winds: calm
Visibility: 6 or more miles (10+ km)
Ceiling: at least 12,000 feet AGL
Clouds: few clouds at 39000 feet AGL
Weather: no significant weather observed at this time

METAR text: EHVK 230505Z AUTO 34001KT 7000 BR SCT390 10/10 Q1026 WHT VRB02KT CAVOK TEMPO 4500 MIFG
Conditions at: EHVK (VOLKEL RNLAFB , NL) observed 0505 UTC 23 August 2019
Temperature: 10.0°C (50°F)
Dewpoint: 10.0°C (50°F) [RH = 100%]
Pressure (altimeter): 30.30 inches Hg (1026.0 mb)
Winds: from the NNW (340 degrees) at 1 MPH (1 knots; 0.5 m/s)
Visibility: 6 or more miles (10+ km)
Ceiling: at least 12,000 feet AGL
Clouds: scattered clouds at 39000 feet AGL
Weather: BR  (mist)

METAR text: EHVK 230500Z AUTO 00000KT 9000 BR FEW390 10/10 Q1026 BLU VRB02KT CAVOK TEMPO 4500 MIFG
Conditions at: EHVK (VOLKEL RNLAFB , NL) observed 0500 UTC 23 August 2019
Temperature: 10.0°C (50°F)
Dewpoint: 10.0°C (50°F) [RH = 100%]
Pressure (altimeter): 30.30 inches Hg (1026.0 mb)
Winds: calm
Visibility: 6 or more miles (10+ km)
Ceiling: at least 12,000 feet AGL
Clouds: few clouds at 39000 feet AGL
Weather: BR  (mist)

METAR text: EHVK 230457Z AUTO 00000KT 6000 BR NCD 10/10 Q1026 WHT VRB02KT CAVOK TEMPO 4500 MIFG
Conditions at: EHVK (VOLKEL RNLAFB , NL) observed 0457 UTC 23 August 2019
Temperature: 10.0°C (50°F)
Dewpoint: 10.0°C (50°F) [RH = 100%]
Pressure (altimeter): 30.30 inches Hg (1026.0 mb)
Winds: calm
Visibility: 6 or more miles (10+ km)
Ceiling: at least 12,000 feet AGL
Clouds: sky clear below 12,000 feet AGL
Weather: BR  (mist)

METAR text: EHVK 230455Z AUTO 34001KT 6000 BR NCD 10/10 Q1026 WHT
Conditions at: EHVK (VOLKEL RNLAFB , NL) observed 0455 UTC 23 August 2019
Temperature: 10.0°C (50°F)
Dewpoint: 10.0°C (50°F) [RH = 100%]
Pressure (altimeter): 30.30 inches Hg (1026.0 mb)
Winds: from the NNW (340 degrees) at 1 MPH (1 knots; 0.5 m/s)
Visibility: 4 miles ( 6 km)
Ceiling: at least 12,000 feet AGL
Clouds: sky clear below 12,000 feet AGL
Weather: BR  (mist)

METAR text: EHVK 230446Z AUTO 00000KT 7000 BR NCD 10/10 Q1026 WHT
Conditions at: EHVK (VOLKEL RNLAFB , NL) observed 0446 UTC 23 August 2019
Temperature: 10.0°C (50°F)
Dewpoint: 10.0°C (50°F) [RH = 100%]
Pressure (altimeter): 30.30 inches Hg (1026.0 mb)
Winds: calm
Visibility: 4 miles ( 7 km)
Ceiling: at least 12,000 feet AGL
Clouds: sky clear below 12,000 feet AGL
Weather: BR  (mist)

METAR text: EHVK 230445Z AUTO 00000KT 8000 BR NCD 10/10 Q1026 BLU
Conditions at: EHVK (VOLKEL RNLAFB , NL) observed 0445 UTC 23 August 2019
Temperature: 10.0°C (50°F)
Dewpoint: 10.0°C (50°F) [RH = 100%]
Pressure (altimeter): 30.30 inches Hg (1026.0 mb)
Winds: calm
Visibility: 5 miles ( 8 km)
Ceiling: at least 12,000 feet AGL
Clouds: sky clear below 12,000 feet AGL
Weather: BR  (mist)

METAR text: EHVK 230434Z AUTO 00000KT 6000 BR NCD 10/10 Q1026 WHT
Conditions at: EHVK (VOLKEL RNLAFB , NL) observed 0434 UTC 23 August 2019
Temperature: 10.0°C (50°F)
Dewpoint: 10.0°C (50°F) [RH = 100%]
Pressure (altimeter): 30.30 inches Hg (1026.0 mb)
Winds: calm
Visibility: 4 miles ( 6 km)
Ceiling: at least 12,000 feet AGL
Clouds: sky clear below 12,000 feet AGL
Weather: BR  (mist)

METAR text: EHVK 230425Z AUTO 00000KT 3900 BR FEW370 10/10 Q1026 GRN
Conditions at: EHVK (VOLKEL RNLAFB , NL) observed 0425 UTC 23 August 2019
Temperature: 10.0°C (50°F)
Dewpoint: 10.0°C (50°F) [RH = 100%]
Pressure (altimeter): 30.30 inches Hg (1026.0 mb)
Winds: calm
Visibility: 2.42 miles (3.89 km)
Ceiling: at least 12,000 feet AGL
Clouds: few clouds at 37000 feet AGL
Weather: BR  (mist)

METAR text: EHVK 230421Z AUTO 00000KT 4100 BR NCD 10/10 Q1026 GRN
Conditions at: EHVK (VOLKEL RNLAFB , NL) observed 0421 UTC 23 August 2019
Temperature: 10.0°C (50°F)
Dewpoint: 10.0°C (50°F) [RH = 100%]
Pressure (altimeter): 30.30 inches Hg (1026.0 mb)
Winds: calm
Visibility: 2.55 miles (4.10 km)
Ceiling: at least 12,000 feet AGL
Clouds: sky clear below 12,000 feet AGL
Weather: BR  (mist)

METAR text: EHVK 230414Z AUTO 00000KT 6000 BR NCD 10/10 Q1026 WHT
Conditions at: EHVK (VOLKEL RNLAFB , NL) observed 0414 UTC 23 August 2019
Temperature: 10.0°C (50°F)
Dewpoint: 10.0°C (50°F) [RH = 100%]
Pressure (altimeter): 30.30 inches Hg (1026.0 mb)
Winds: calm
Visibility: 4 miles ( 6 km)
Ceiling: at least 12,000 feet AGL
Clouds: sky clear below 12,000 feet AGL
Weather: BR  (mist)

METAR text: EHVK 230406Z AUTO 00000KT 4300 BR FEW370 10/10 Q1026 GRN
Conditions at: EHVK (VOLKEL RNLAFB , NL) observed 0406 UTC 23 August 2019
Temperature: 10.0°C (50°F)
Dewpoint: 10.0°C (50°F) [RH = 100%]
Pressure (altimeter): 30.30 inches Hg (1026.0 mb)
Winds: calm
Visibility: 2.67 miles (4.30 km)
Ceiling: at least 12,000 feet AGL
Clouds: few clouds at 37000 feet AGL
Weather: BR  (mist)

METAR text: EHVK 230402Z AUTO 00000KT 7000 BR NCD 10/10 Q1026 WHT
Conditions at: EHVK (VOLKEL RNLAFB , NL) observed 0402 UTC 23 August 2019
Temperature: 10.0°C (50°F)
Dewpoint: 10.0°C (50°F) [RH = 100%]
Pressure (altimeter): 30.30 inches Hg (1026.0 mb)
Winds: calm
Visibility: 4 miles ( 7 km)
Ceiling: at least 12,000 feet AGL
Clouds: sky clear below 12,000 feet AGL
Weather: BR  (mist)

METAR text: EHVK 230359Z AUTO 00000KT 3700 BR NCD 10/10 Q1026 GRN
Conditions at: EHVK (VOLKEL RNLAFB , NL) observed 0359 UTC 23 August 2019
Temperature: 10.0°C (50°F)
Dewpoint: 10.0°C (50°F) [RH = 100%]
Pressure (altimeter): 30.30 inches Hg (1026.0 mb)
Winds: calm
Visibility: 2.30 miles (3.70 km)
Ceiling: at least 12,000 feet AGL
Clouds: sky clear below 12,000 feet AGL
Weather: BR  (mist)

METAR text: EHVK 230355Z AUTO 00000KT 5000 BR FEW370 10/10 Q1026 WHT
Conditions at: EHVK (VOLKEL RNLAFB , NL) observed 0355 UTC 23 August 2019
Temperature: 10.0°C (50°F)
Dewpoint: 10.0°C (50°F) [RH = 100%]
Pressure (altimeter): 30.30 inches Hg (1026.0 mb)
Winds: calm
Visibility: 3 miles ( 5 km)
Ceiling: at least 12,000 feet AGL
Clouds: few clouds at 37000 feet AGL
Weather: BR  (mist)

METAR text: EHVK 230343Z AUTO 35001KT 7000 BR FEW370 10/10 Q1026 WHT
Conditions at: EHVK (VOLKEL RNLAFB , NL) observed 0343 UTC 23 August 2019
Temperature: 10.0°C (50°F)
Dewpoint: 10.0°C (50°F) [RH = 100%]
Pressure (altimeter): 30.30 inches Hg (1026.0 mb)
Winds: from the N (350 degrees) at 1 MPH (1 knots; 0.5 m/s)
Visibility: 4 miles ( 7 km)
Ceiling: at least 12,000 feet AGL
Clouds: few clouds at 37000 feet AGL
Weather: BR  (mist)

METAR text: EHVK 230333Z AUTO 35001KT 5000 BR NCD 10/10 Q1026 WHT
Conditions at: EHVK (VOLKEL RNLAFB , NL) observed 0333 UTC 23 August 2019
Temperature: 10.0°C (50°F)
Dewpoint: 10.0°C (50°F) [RH = 100%]
Pressure (altimeter): 30.30 inches Hg (1026.0 mb)
Winds: from the N (350 degrees) at 1 MPH (1 knots; 0.5 m/s)
Visibility: 3 miles ( 5 km)
Ceiling: at least 12,000 feet AGL
Clouds: sky clear below 12,000 feet AGL
Weather: BR  (mist)

METAR text: EHVK 230329Z AUTO 03001KT 3800 BR NCD 11/10 Q1026 GRN
Conditions at: EHVK (VOLKEL RNLAFB , NL) observed 0329 UTC 23 August 2019
Temperature: 11.0°C (52°F)
Dewpoint: 10.0°C (50°F) [RH = 94%]
Pressure (altimeter): 30.30 inches Hg (1026.0 mb)
Winds: from the NNE (30 degrees) at 1 MPH (1 knots; 0.5 m/s)
Visibility: 2.36 miles (3.80 km)
Ceiling: at least 12,000 feet AGL
Clouds: sky clear below 12,000 feet AGL
Weather: BR  (mist)

METAR text: EHVK 230325Z AUTO 09001KT 7000 BR FEW370 11/10 Q1026 WHT
Conditions at: EHVK (VOLKEL RNLAFB , NL) observed 0325 UTC 23 August 2019
Temperature: 11.0°C (52°F)
Dewpoint: 10.0°C (50°F) [RH = 94%]
Pressure (altimeter): 30.30 inches Hg (1026.0 mb)
Winds: from the E (90 degrees) at 1 MPH (1 knots; 0.5 m/s)
Visibility: 4 miles ( 7 km)
Ceiling: at least 12,000 feet AGL
Clouds: few clouds at 37000 feet AGL
Weather: BR  (mist)

METAR text: EHVK 230318Z AUTO 10001KT 8000 BR FEW370 11/11 Q1026 BLU
Conditions at: EHVK (VOLKEL RNLAFB , NL) observed 0318 UTC 23 August 2019
Temperature: 11.0°C (52°F)
Dewpoint: 11.0°C (52°F) [RH = 100%]
Pressure (altimeter): 30.30 inches Hg (1026.0 mb)
Winds: from the E (100 degrees) at 1 MPH (1 knots; 0.5 m/s)
Visibility: 5 miles ( 8 km)
Ceiling: at least 12,000 feet AGL
Clouds: few clouds at 37000 feet AGL
Weather: BR  (mist)

METAR text: EHVK 230308Z AUTO 00000KT 5000 BR FEW390 11/11 Q1026 WHT
Conditions at: EHVK (VOLKEL RNLAFB , NL) observed 0308 UTC 23 August 2019
Temperature: 11.0°C (52°F)
Dewpoint: 11.0°C (52°F) [RH = 100%]
Pressure (altimeter): 30.30 inches Hg (1026.0 mb)
Winds: calm
Visibility: 3 miles ( 5 km)
Ceiling: at least 12,000 feet AGL
Clouds: few clouds at 39000 feet AGL
Weather: BR  (mist)

METAR text: EHVK 230304Z AUTO 00000KT 4500 BR BKN390 11/11 Q1026 GRN
Conditions at: EHVK (VOLKEL RNLAFB , NL) observed 0304 UTC 23 August 2019
Temperature: 11.0°C (52°F)
Dewpoint: 11.0°C (52°F) [RH = 100%]
Pressure (altimeter): 30.30 inches Hg (1026.0 mb)
Winds: calm
Visibility: 2.80 miles (4.51 km)
Ceiling: 39000 feet AGL
Clouds: broken clouds at 39000 feet AGL
Weather: BR  (mist)

METAR text: EHVK 230255Z AUTO 00000KT 7000 BR BKN390 11/11 Q1026 WHT
Conditions at: EHVK (VOLKEL RNLAFB , NL) observed 0255 UTC 23 August 2019
Temperature: 11.0°C (52°F)
Dewpoint: 11.0°C (52°F) [RH = 100%]
Pressure (altimeter): 30.30 inches Hg (1026.0 mb)
Winds: calm
Visibility: 4 miles ( 7 km)
Ceiling: 39000 feet AGL
Clouds: broken clouds at 39000 feet AGL
Weather: BR  (mist)

METAR text: EHVK 230248Z AUTO 10001KT 8000 BR BKN380 11/11 Q1026 BLU
Conditions at: EHVK (VOLKEL RNLAFB , NL) observed 0248 UTC 23 August 2019
Temperature: 11.0°C (52°F)
Dewpoint: 11.0°C (52°F) [RH = 100%]
Pressure (altimeter): 30.30 inches Hg (1026.0 mb)
Winds: from the E (100 degrees) at 1 MPH (1 knots; 0.5 m/s)
Visibility: 5 miles ( 8 km)
Ceiling: 38000 feet AGL
Clouds: broken clouds at 38000 feet AGL
Weather: BR  (mist)

METAR text: EHVK 230242Z AUTO 10001KT 7000 BR BKN380 11/11 Q1026 WHT
Conditions at: EHVK (VOLKEL RNLAFB , NL) observed 0242 UTC 23 August 2019
Temperature: 11.0°C (52°F)
Dewpoint: 11.0°C (52°F) [RH = 100%]
Pressure (altimeter): 30.30 inches Hg (1026.0 mb)
Winds: from the E (100 degrees) at 1 MPH (1 knots; 0.5 m/s)
Visibility: 4 miles ( 7 km)
Ceiling: 38000 feet AGL
Clouds: broken clouds at 38000 feet AGL
Weather: BR  (mist)

METAR text: EHVK 230233Z AUTO 10001KT 9000 BR OVC380 11/11 Q1026 BLU
Conditions at: EHVK (VOLKEL RNLAFB , NL) observed 0233 UTC 23 August 2019
Temperature: 11.0°C (52°F)
Dewpoint: 11.0°C (52°F) [RH = 100%]
Pressure (altimeter): 30.30 inches Hg (1026.0 mb)
Winds: from the E (100 degrees) at 1 MPH (1 knots; 0.5 m/s)
Visibility: 6 miles ( 9 km)
Ceiling: 38000 feet AGL
Clouds: overcast cloud deck at 38000 feet AGL
Weather: BR  (mist)

METAR text: EHVK 230225Z AUTO 00000KT 5000 BR FEW390 11/11 Q1026 WHT
Conditions at: EHVK (VOLKEL RNLAFB , NL) observed 0225 UTC 23 August 2019
Temperature: 11.0°C (52°F)
Dewpoint: 11.0°C (52°F) [RH = 100%]
Pressure (altimeter): 30.30 inches Hg (1026.0 mb)
Winds: calm
Visibility: 3 miles ( 5 km)
Ceiling: at least 12,000 feet AGL
Clouds: few clouds at 39000 feet AGL
Weather: BR  (mist)

Forecast for: EHVK (VOLKEL RNLAFB , NL)
Text: TAF EHVK 241200Z 2413/2501 09006KT CAVOK
Forecast period: 1300 UTC 24 August 2019 to 0100 UTC 25 August 2019
Forecast type: FROM: standard forecast or significant change
Winds: from the E (90 degrees) at 7 MPH (6 knots; 3.1 m/s)
Visibility: 6 or more miles 10+ km)
Ceiling: unknown
Clouds: missing
Weather: NSW  (no significant weather)